Underhill, Wisconsin
Current Conditions -  °F | °C
As of 5:15 AM on Monday 20 Oct 2014 (Local Time) from KEZS Reporting Station
Haze Haze  
Wind Chill: 39°   Ceiling: Unl
Heat Index: 39°   Visibility: 2.5mi
Dew Point: 38°   Wind: 0mph
Humidity: 94%   Direction: NA
Pressure: 29.78"   Gusts: NA
Location:  44.9109°N, 88.3543°W
Report Text: KEZS 201015Z AUTO 00000KT 2 1/2SM BR CLR 04/03 A2978 RMK AO2 VIS 3/4V5 T00400031
Loading
Personal Weather Stations






























Interactive Weather Map
Tropical Storm Tracking
New forecast layout! Learn more

10-Day Weather Forecast

Advertisements
Track Severe Weather on mobile